ADDS METAR Data INFO
IDs: Format: Raw Decoded Include TAF

Data at: 2040 UTC 16 Dec 2017

KDUG 161956Z AUTO 17011KT 10SM CLR 14/M05 A2984 RMK AO2 SLP084 T01441050
KDUG 161856Z AUTO 16013KT 10SM CLR 13/M06 A2988 RMK AO2 PRESFR SLP097 T01281056
KDUG 161756Z AUTO 16012KT 10SM CLR 11/M07 A2992 RMK AO2 SLP115 T01061072 10106 21083 58011
KDUG 161656Z AUTO 15006KT 10SM CLR 06/M07 A2995 RMK AO2 SLP126 T00561072
KDUG 161556Z AUTO 14003KT 10SM CLR 01/M09 A2995 RMK AO2 SLP134 T00061089
KDUG 161456Z AUTO 00000KT 10SM CLR M05/M12 A2996 RMK AO2 SLP140 T10501117 55005
KDUG 161356Z AUTO 00000KT 10SM CLR M08/M13 A2995 RMK AO2 SLP149 T10831133
KDUG 161256Z AUTO 05003KT 10SM CLR M06/M12 A2996 RMK AO2 SLP142 T10611117
KDUG 161156Z AUTO 00000KT 10SM CLR M07/M13 A2997 RMK AO2 SLP144 T10721133 10022 21083 56026
KDUG 161056Z AUTO 14003KT 10SM CLR M08/M13 A3000 RMK AO2 SLP153 T10831133
KDUG 160956Z AUTO 05007KT 10SM CLR M04/M12 A3002 RMK AO2 SLP153 T10441117
KDUG 160856Z AUTO 31006KT 10SM CLR M06/M12 A3006 RMK AO2 SLP167 T10561117 56014
KDUG 160756Z AUTO 02008KT 10SM CLR M02/M10 A3007 RMK AO2 SLP165 T10171100
KDUG 160656Z AUTO 35009KT 10SM CLR M01/M08 A3010 RMK AO2 SLP177 T10061083 401501011
KDUG 160556Z AUTO 29005KT 10SM CLR 00/M08 A3011 RMK AO2 SLP180 T00001083 10117 21006 56004
KDUG 160456Z AUTO 00000KT 10SM CLR 04/M08 A3011 RMK AO2 SLP175 T00391078
KDUG 160356Z AUTO 00000KT 10SM CLR 05/M07 A3012 RMK AO2 SLP180 T00501072
KDUG 160256Z AUTO 10010KT 10SM CLR 08/M07 A3012 RMK AO2 SLP183 T00781067 58001
KDUG 160156Z AUTO 13007KT 10SM CLR 06/M08 A3013 RMK AO2 SLP190 T00611078
KDUG 160056Z AUTO 00000KT 10SM CLR 09/M08 A3013 RMK AO2 SLP183 T00891083
KDUG 152356Z AUTO 11007KT 10SM CLR 12/M08 A3013 RMK AO2 SLP177 T01171078 10150 20106 56012
KDUG 152256Z AUTO 09011KT 10SM CLR 14/M08 A3013 RMK AO2 SLP179 T01391078
KDUG 152156Z AUTO 10007KT 10SM CLR 14/M08 A3015 RMK AO2 SLP175 T01441078
KDUG 152056Z AUTO 08011G20KT 10SM CLR 14/M07 A3017 RMK AO2 SLP185 T01391072 56035
KDUG 151956Z AUTO 07014KT 10SM CLR 14/M08 A3020 RMK AO2 SLP196 T01391078
KDUG 151856Z AUTO 08014G19KT 10SM CLR 12/M07 A3025 RMK AO2 SLP219 T01171067
KDUG 151756Z AUTO 11013KT 10SM CLR 11/M07 A3029 RMK AO2 SLP232 T01061067 10106 20033 58002
KDUG 151656Z AUTO 08007KT 10SM CLR 10/M06 A3030 RMK AO2 SLP239 T01001061
KDUG 151556Z AUTO 10011KT 10SM CLR 08/M06 A3029 RMK AO2 SLP232 T00831061
KDUG 151456Z AUTO 14006KT 10SM CLR 04/M06 A3029 RMK AO2 SLP242 T00441061 53021
KDUG 151356Z AUTO 16007KT 10SM CLR 04/M06 A3027 RMK AO2 SLP231 T00391061
KDUG 151256Z AUTO 23003KT 10SM CLR 04/M04 A3023 RMK AO2 SLP214 T00441044
KDUG 151156Z AUTO 13003KT 10SM CLR 06/M01 A3022 RMK AO2 SLP206 T00561011 10094 20022 53013
KDUG 151056Z AUTO VRB03KT 10SM CLR 04/M01 A3021 RMK AO2 SLP196 T00391011
KDUG 150956Z AUTO 08011KT 10SM CLR 08/02 A3019 RMK AO2 SLP183 T00830017
KDUG 150856Z AUTO 19006KT 10SM CLR 07/02 A3018 RMK AO2 SLP181 T00720017 53009